sensor_id;sensor_type;location;lat;lon;timestamp;P1;durP1;ratioP1;P2;durP2;ratioP2
14191;SDS011;7177;48.572;7.838;2023-04-15T00:00:13;7.20;;;4.83;;
14191;SDS011;7177;48.572;7.838;2023-04-15T00:02:40;8.27;;;4.40;;
14191;SDS011;7177;48.572;7.838;2023-04-15T00:05:05;6.60;;;4.17;;
14191;SDS011;7177;48.572;7.838;2023-04-15T00:07:31;5.77;;;4.17;;
14191;SDS011;7177;48.572;7.838;2023-04-15T00:09:57;6.60;;;4.43;;
14191;SDS011;7177;48.572;7.838;2023-04-15T00:12:23;7.70;;;4.20;;
14191;SDS011;7177;48.572;7.838;2023-04-15T00:14:49;5.63;;;4.17;;
14191;SDS011;7177;48.572;7.838;2023-04-15T00:17:15;7.90;;;4.13;;
14191;SDS011;7177;48.572;7.838;2023-04-15T00:19:41;10.37;;;4.40;;
14191;SDS011;7177;48.572;7.838;2023-04-15T00:22:06;8.40;;;4.63;;
14191;SDS011;7177;48.572;7.838;2023-04-15T00:24:32;5.53;;;3.70;;
14191;SDS011;7177;48.572;7.838;2023-04-15T00:26:58;5.60;;;3.37;;
14191;SDS011;7177;48.572;7.838;2023-04-15T00:29:23;7.53;;;4.20;;
14191;SDS011;7177;48.572;7.838;2023-04-15T00:31:49;6.53;;;3.80;;
14191;SDS011;7177;48.572;7.838;2023-04-15T00:34:15;5.37;;;3.67;;
14191;SDS011;7177;48.572;7.838;2023-04-15T00:36:41;7.77;;;3.50;;
14191;SDS011;7177;48.572;7.838;2023-04-15T00:39:06;4.87;;;3.73;;
14191;SDS011;7177;48.572;7.838;2023-04-15T00:41:32;6.77;;;4.20;;
14191;SDS011;7177;48.572;7.838;2023-04-15T00:43:58;6.63;;;3.67;;
14191;SDS011;7177;48.572;7.838;2023-04-15T00:46:24;6.32;;;3.78;;
14191;SDS011;7177;48.572;7.838;2023-04-15T00:48:52;11.63;;;5.10;;
14191;SDS011;7177;48.572;7.838;2023-04-15T00:51:19;7.97;;;4.40;;
14191;SDS011;7177;48.572;7.838;2023-04-15T00:53:44;7.50;;;3.80;;
14191;SDS011;7177;48.572;7.838;2023-04-15T00:56:10;4.67;;;3.50;;
14191;SDS011;7177;48.572;7.838;2023-04-15T00:58:36;7.87;;;4.43;;
14191;SDS011;7177;48.572;7.838;2023-04-15T01:01:01;7.60;;;4.17;;
14191;SDS011;7177;48.572;7.838;2023-04-15T01:03:28;6.65;;;4.13;;
14191;SDS011;7177;48.572;7.838;2023-04-15T01:05:54;7.47;;;4.87;;
14191;SDS011;7177;48.572;7.838;2023-04-15T01:08:22;7.05;;;4.32;;
14191;SDS011;7177;48.572;7.838;2023-04-15T01:10:52;6.75;;;4.65;;
14191;SDS011;7177;48.572;7.838;2023-04-15T01:13:19;7.03;;;4.47;;
14191;SDS011;7177;48.572;7.838;2023-04-15T01:15:47;6.72;;;3.90;;
14191;SDS011;7177;48.572;7.838;2023-04-15T01:18:13;8.87;;;4.57;;
14191;SDS011;7177;48.572;7.838;2023-04-15T01:20:39;7.32;;;4.43;;
14191;SDS011;7177;48.572;7.838;2023-04-15T01:23:05;9.67;;;4.00;;
14191;SDS011;7177;48.572;7.838;2023-04-15T01:25:31;6.55;;;4.60;;
14191;SDS011;7177;48.572;7.838;2023-04-15T01:27:57;7.22;;;4.63;;
14191;SDS011;7177;48.572;7.838;2023-04-15T01:30:24;9.10;;;5.32;;
14191;SDS011;7177;48.572;7.838;2023-04-15T01:32:50;7.60;;;4.03;;
14191;SDS011;7177;48.572;7.838;2023-04-15T01:35:16;7.77;;;4.43;;
14191;SDS011;7177;48.572;7.838;2023-04-15T01:37:42;8.50;;;5.23;;
14191;SDS011;7177;48.572;7.838;2023-04-15T01:40:08;7.22;;;4.45;;
14191;SDS011;7177;48.572;7.838;2023-04-15T01:42:35;6.13;;;3.93;;
14191;SDS011;7177;48.572;7.838;2023-04-15T01:45:01;6.75;;;4.53;;
14191;SDS011;7177;48.572;7.838;2023-04-15T01:47:27;5.53;;;4.03;;
14191;SDS011;7177;48.572;7.838;2023-04-15T01:49:52;5.37;;;3.70;;
14191;SDS011;7177;48.572;7.838;2023-04-15T01:52:18;8.43;;;4.17;;
14191;SDS011;7177;48.572;7.838;2023-04-15T01:54:43;6.13;;;4.13;;
14191;SDS011;7177;48.572;7.838;2023-04-15T01:57:09;5.83;;;4.10;;
14191;SDS011;7177;48.572;7.838;2023-04-15T01:59:35;5.23;;;4.00;;
14191;SDS011;7177;48.572;7.838;2023-04-15T02:02:01;7.13;;;4.53;;
14191;SDS011;7177;48.572;7.838;2023-04-15T02:04:26;7.27;;;4.53;;
14191;SDS011;7177;48.572;7.838;2023-04-15T02:06:52;8.50;;;4.50;;
14191;SDS011;7177;48.572;7.838;2023-04-15T02:09:18;7.07;;;4.40;;
14191;SDS011;7177;48.572;7.838;2023-04-15T02:11:44;5.20;;;4.07;;
14191;SDS011;7177;48.572;7.838;2023-04-15T02:14:10;5.60;;;3.70;;
14191;SDS011;7177;48.572;7.838;2023-04-15T02:16:36;4.80;;;3.63;;
14191;SDS011;7177;48.572;7.838;2023-04-15T02:19:01;4.80;;;3.70;;
14191;SDS011;7177;48.572;7.838;2023-04-15T02:23:55;4.40;;;3.50;;
14191;SDS011;7177;48.572;7.838;2023-04-15T02:26:21;6.53;;;4.10;;
14191;SDS011;7177;48.572;7.838;2023-04-15T02:28:47;7.47;;;4.23;;
14191;SDS011;7177;48.572;7.838;2023-04-15T02:31:15;10.52;;;4.40;;
14191;SDS011;7177;48.572;7.838;2023-04-15T02:33:41;6.63;;;3.80;;
14191;SDS011;7177;48.572;7.838;2023-04-15T02:36:07;8.70;;;3.17;;
14191;SDS011;7177;48.572;7.838;2023-04-15T02:38:34;5.70;;;3.53;;
14191;SDS011;7177;48.572;7.838;2023-04-15T02:40:59;7.83;;;4.00;;
14191;SDS011;7177;48.572;7.838;2023-04-15T02:43:25;6.33;;;3.47;;
14191;SDS011;7177;48.572;7.838;2023-04-15T02:45:51;5.83;;;3.40;;
14191;SDS011;7177;48.572;7.838;2023-04-15T02:48:16;7.30;;;3.70;;
14191;SDS011;7177;48.572;7.838;2023-04-15T02:50:44;5.25;;;3.50;;
14191;SDS011;7177;48.572;7.838;2023-04-15T02:53:10;5.03;;;3.70;;
14191;SDS011;7177;48.572;7.838;2023-04-15T02:55:37;6.10;;;3.30;;
14191;SDS011;7177;48.572;7.838;2023-04-15T02:58:02;4.20;;;3.20;;
14191;SDS011;7177;48.572;7.838;2023-04-15T03:00:28;8.30;;;3.50;;
14191;SDS011;7177;48.572;7.838;2023-04-15T03:02:59;5.50;;;3.97;;
14191;SDS011;7177;48.572;7.838;2023-04-15T03:05:26;5.05;;;3.17;;
14191;SDS011;7177;48.572;7.838;2023-04-15T03:07:52;6.57;;;3.60;;
14191;SDS011;7177;48.572;7.838;2023-04-15T03:10:17;4.30;;;3.03;;
14191;SDS011;7177;48.572;7.838;2023-04-15T03:12:44;6.45;;;3.25;;
14191;SDS011;7177;48.572;7.838;2023-04-15T03:15:09;6.23;;;3.27;;
14191;SDS011;7177;48.572;7.838;2023-04-15T03:17:35;6.03;;;3.60;;
14191;SDS011;7177;48.572;7.838;2023-04-15T03:20:01;5.77;;;3.43;;
14191;SDS011;7177;48.572;7.838;2023-04-15T03:22:28;5.38;;;3.45;;
14191;SDS011;7177;48.572;7.838;2023-04-15T03:24:55;4.88;;;3.22;;
14191;SDS011;7177;48.572;7.838;2023-04-15T03:27:20;7.40;;;3.30;;
14191;SDS011;7177;48.572;7.838;2023-04-15T03:29:46;6.23;;;3.50;;
14191;SDS011;7177;48.572;7.838;2023-04-15T03:32:11;6.57;;;3.57;;
14191;SDS011;7177;48.572;7.838;2023-04-15T03:34:39;4.00;;;3.30;;
14191;SDS011;7177;48.572;7.838;2023-04-15T03:37:05;6.57;;;3.72;;
14191;SDS011;7177;48.572;7.838;2023-04-15T03:39:31;4.77;;;3.27;;
14191;SDS011;7177;48.572;7.838;2023-04-15T03:41:57;7.43;;;3.83;;
14191;SDS011;7177;48.572;7.838;2023-04-15T03:44:23;8.25;;;3.50;;
14191;SDS011;7177;48.572;7.838;2023-04-15T03:46:50;6.10;;;4.07;;
14191;SDS011;7177;48.572;7.838;2023-04-15T03:49:15;4.67;;;3.73;;
14191;SDS011;7177;48.572;7.838;2023-04-15T03:51:41;5.10;;;3.53;;
14191;SDS011;7177;48.572;7.838;2023-04-15T03:54:07;4.57;;;3.53;;
14191;SDS011;7177;48.572;7.838;2023-04-15T03:56:32;13.03;;;7.23;;
14191;SDS011;7177;48.572;7.838;2023-04-15T03:58:58;7.90;;;5.17;;
14191;SDS011;7177;48.572;7.838;2023-04-15T04:01:23;6.87;;;4.40;;
14191;SDS011;7177;48.572;7.838;2023-04-15T04:03:49;5.23;;;3.97;;
14191;SDS011;7177;48.572;7.838;2023-04-15T04:06:14;4.40;;;3.60;;
14191;SDS011;7177;48.572;7.838;2023-04-15T04:08:40;5.60;;;3.72;;
14191;SDS011;7177;48.572;7.838;2023-04-15T04:11:06;4.70;;;3.43;;
14191;SDS011;7177;48.572;7.838;2023-04-15T04:13:31;7.20;;;3.70;;
14191;SDS011;7177;48.572;7.838;2023-04-15T04:15:57;5.10;;;3.80;;
14191;SDS011;7177;48.572;7.838;2023-04-15T04:18:23;4.57;;;3.43;;
14191;SDS011;7177;48.572;7.838;2023-04-15T04:20:48;6.30;;;3.97;;
14191;SDS011;7177;48.572;7.838;2023-04-15T04:23:14;5.97;;;4.20;;
14191;SDS011;7177;48.572;7.838;2023-04-15T04:25:39;8.30;;;3.80;;
14191;SDS011;7177;48.572;7.838;2023-04-15T04:28:05;6.10;;;3.80;;
14191;SDS011;7177;48.572;7.838;2023-04-15T04:30:31;7.30;;;4.30;;
14191;SDS011;7177;48.572;7.838;2023-04-15T04:32:56;6.83;;;3.77;;
14191;SDS011;7177;48.572;7.838;2023-04-15T04:35:22;3.87;;;3.27;;
14191;SDS011;7177;48.572;7.838;2023-04-15T04:37:47;11.83;;;4.30;;
14191;SDS011;7177;48.572;7.838;2023-04-15T04:40:13;7.97;;;4.67;;
14191;SDS011;7177;48.572;7.838;2023-04-15T04:42:39;7.03;;;4.27;;
14191;SDS011;7177;48.572;7.838;2023-04-15T04:45:05;13.67;;;4.30;;
14191;SDS011;7177;48.572;7.838;2023-04-15T04:47:31;4.50;;;3.58;;
14191;SDS011;7177;48.572;7.838;2023-04-15T04:49:56;8.00;;;4.10;;
14191;SDS011;7177;48.572;7.838;2023-04-15T04:52:22;5.83;;;3.97;;
14191;SDS011;7177;48.572;7.838;2023-04-15T04:54:47;5.37;;;3.70;;
14191;SDS011;7177;48.572;7.838;2023-04-15T04:57:13;5.67;;;3.70;;
14191;SDS011;7177;48.572;7.838;2023-04-15T04:59:39;8.57;;;4.37;;
14191;SDS011;7177;48.572;7.838;2023-04-15T05:02:04;6.20;;;4.10;;
14191;SDS011;7177;48.572;7.838;2023-04-15T05:04:31;8.25;;;4.22;;
14191;SDS011;7177;48.572;7.838;2023-04-15T05:06:57;6.53;;;3.63;;
14191;SDS011;7177;48.572;7.838;2023-04-15T05:09:23;5.15;;;3.78;;
14191;SDS011;7177;48.572;7.838;2023-04-15T05:11:49;4.43;;;3.47;;
14191;SDS011;7177;48.572;7.838;2023-04-15T05:14:14;9.93;;;3.93;;
14191;SDS011;7177;48.572;7.838;2023-04-15T05:16:40;7.63;;;3.90;;
14191;SDS011;7177;48.572;7.838;2023-04-15T05:19:05;5.70;;;3.63;;
14191;SDS011;7177;48.572;7.838;2023-04-15T05:21:31;5.20;;;3.20;;
14191;SDS011;7177;48.572;7.838;2023-04-15T05:23:57;6.63;;;3.47;;
14191;SDS011;7177;48.572;7.838;2023-04-15T05:26:22;6.43;;;3.50;;
14191;SDS011;7177;48.572;7.838;2023-04-15T05:28:48;5.43;;;3.40;;
14191;SDS011;7177;48.572;7.838;2023-04-15T05:31:14;7.72;;;4.20;;
14191;SDS011;7177;48.572;7.838;2023-04-15T05:33:40;7.07;;;4.40;;
14191;SDS011;7177;48.572;7.838;2023-04-15T05:36:05;10.33;;;6.10;;
14191;SDS011;7177;48.572;7.838;2023-04-15T05:38:31;11.67;;;5.80;;
14191;SDS011;7177;48.572;7.838;2023-04-15T05:40:57;7.47;;;4.07;;
14191;SDS011;7177;48.572;7.838;2023-04-15T05:43:22;6.13;;;4.10;;
14191;SDS011;7177;48.572;7.838;2023-04-15T05:45:48;6.20;;;3.77;;
14191;SDS011;7177;48.572;7.838;2023-04-15T05:48:13;6.03;;;3.37;;
14191;SDS011;7177;48.572;7.838;2023-04-15T05:50:39;3.90;;;3.50;;
14191;SDS011;7177;48.572;7.838;2023-04-15T05:53:06;4.95;;;3.33;;
14191;SDS011;7177;48.572;7.838;2023-04-15T05:55:32;7.15;;;3.92;;
14191;SDS011;7177;48.572;7.838;2023-04-15T05:57:57;9.90;;;4.73;;
14191;SDS011;7177;48.572;7.838;2023-04-15T06:00:23;6.40;;;4.23;;
14191;SDS011;7177;48.572;7.838;2023-04-15T06:02:48;6.40;;;4.20;;
14191;SDS011;7177;48.572;7.838;2023-04-15T06:05:14;5.20;;;3.83;;
14191;SDS011;7177;48.572;7.838;2023-04-15T06:07:40;4.83;;;3.70;;
14191;SDS011;7177;48.572;7.838;2023-04-15T06:10:07;9.80;;;3.88;;
14191;SDS011;7177;48.572;7.838;2023-04-15T06:12:33;7.50;;;4.60;;
14191;SDS011;7177;48.572;7.838;2023-04-15T06:14:59;7.33;;;3.90;;
14191;SDS011;7177;48.572;7.838;2023-04-15T06:17:24;9.03;;;3.87;;
14191;SDS011;7177;48.572;7.838;2023-04-15T06:19:50;8.83;;;3.97;;
14191;SDS011;7177;48.572;7.838;2023-04-15T06:22:19;5.70;;;3.80;;
14191;SDS011;7177;48.572;7.838;2023-04-15T06:24:46;7.20;;;4.30;;
14191;SDS011;7177;48.572;7.838;2023-04-15T06:27:12;8.47;;;4.40;;
14191;SDS011;7177;48.572;7.838;2023-04-15T06:29:38;8.00;;;3.57;;
14191;SDS011;7177;48.572;7.838;2023-04-15T06:32:03;7.53;;;3.40;;
14191;SDS011;7177;48.572;7.838;2023-04-15T06:34:29;5.83;;;3.40;;
14191;SDS011;7177;48.572;7.838;2023-04-15T06:36:54;6.43;;;3.67;;
14191;SDS011;7177;48.572;7.838;2023-04-15T06:39:20;6.40;;;3.73;;
14191;SDS011;7177;48.572;7.838;2023-04-15T06:41:46;11.50;;;7.00;;
14191;SDS011;7177;48.572;7.838;2023-04-15T06:44:11;14.77;;;5.73;;
14191;SDS011;7177;48.572;7.838;2023-04-15T06:46:37;7.50;;;5.20;;
14191;SDS011;7177;48.572;7.838;2023-04-15T06:49:02;4.37;;;3.57;;
14191;SDS011;7177;48.572;7.838;2023-04-15T06:51:29;4.40;;;3.47;;
14191;SDS011;7177;48.572;7.838;2023-04-15T06:53:55;6.65;;;4.00;;
14191;SDS011;7177;48.572;7.838;2023-04-15T06:56:21;9.33;;;4.30;;
14191;SDS011;7177;48.572;7.838;2023-04-15T06:58:47;8.80;;;4.22;;
14191;SDS011;7177;48.572;7.838;2023-04-15T07:01:12;5.50;;;3.40;;
14191;SDS011;7177;48.572;7.838;2023-04-15T07:03:38;5.63;;;3.77;;
14191;SDS011;7177;48.572;7.838;2023-04-15T07:06:03;5.40;;;3.70;;
14191;SDS011;7177;48.572;7.838;2023-04-15T07:08:31;4.20;;;3.20;;
14191;SDS011;7177;48.572;7.838;2023-04-15T07:10:57;6.77;;;3.07;;
14191;SDS011;7177;48.572;7.838;2023-04-15T07:13:24;5.83;;;2.57;;
14191;SDS011;7177;48.572;7.838;2023-04-15T07:15:49;5.90;;;2.80;;
14191;SDS011;7177;48.572;7.838;2023-04-15T07:18:15;4.33;;;2.50;;
14191;SDS011;7177;48.572;7.838;2023-04-15T07:20:41;6.50;;;2.73;;
14191;SDS011;7177;48.572;7.838;2023-04-15T07:23:07;5.27;;;2.70;;
14191;SDS011;7177;48.572;7.838;2023-04-15T07:25:32;4.30;;;2.87;;
14191;SDS011;7177;48.572;7.838;2023-04-15T07:27:58;5.00;;;2.83;;
14191;SDS011;7177;48.572;7.838;2023-04-15T07:30:23;3.63;;;2.60;;
14191;SDS011;7177;48.572;7.838;2023-04-15T07:32:49;7.37;;;3.47;;
14191;SDS011;7177;48.572;7.838;2023-04-15T07:35:14;8.40;;;4.90;;
14191;SDS011;7177;48.572;7.838;2023-04-15T07:37:40;4.27;;;2.80;;
14191;SDS011;7177;48.572;7.838;2023-04-15T07:40:07;4.27;;;2.60;;
14191;SDS011;7177;48.572;7.838;2023-04-15T07:42:33;5.07;;;2.90;;
14191;SDS011;7177;48.572;7.838;2023-04-15T07:44:59;3.70;;;2.23;;
14191;SDS011;7177;48.572;7.838;2023-04-15T07:47:25;9.43;;;3.30;;
14191;SDS011;7177;48.572;7.838;2023-04-15T07:49:51;7.50;;;3.00;;
14191;SDS011;7177;48.572;7.838;2023-04-15T07:52:16;3.67;;;2.53;;
14191;SDS011;7177;48.572;7.838;2023-04-15T07:54:42;4.20;;;2.40;;
14191;SDS011;7177;48.572;7.838;2023-04-15T07:57:08;5.37;;;2.80;;
14191;SDS011;7177;48.572;7.838;2023-04-15T07:59:34;5.90;;;2.83;;
14191;SDS011;7177;48.572;7.838;2023-04-15T08:01:59;6.10;;;2.60;;
14191;SDS011;7177;48.572;7.838;2023-04-15T08:04:25;4.57;;;3.03;;
14191;SDS011;7177;48.572;7.838;2023-04-15T08:06:51;4.23;;;2.80;;
14191;SDS011;7177;48.572;7.838;2023-04-15T08:09:16;4.97;;;2.67;;
14191;SDS011;7177;48.572;7.838;2023-04-15T08:11:42;5.67;;;3.47;;
14191;SDS011;7177;48.572;7.838;2023-04-15T08:14:07;5.07;;;3.67;;
14191;SDS011;7177;48.572;7.838;2023-04-15T08:16:33;18.27;;;10.23;;
14191;SDS011;7177;48.572;7.838;2023-04-15T08:18:59;13.13;;;4.10;;
14191;SDS011;7177;48.572;7.838;2023-04-15T08:21:24;11.90;;;3.13;;
14191;SDS011;7177;48.572;7.838;2023-04-15T08:23:51;8.53;;;3.53;;
14191;SDS011;7177;48.572;7.838;2023-04-15T08:26:18;5.97;;;3.40;;
14191;SDS011;7177;48.572;7.838;2023-04-15T08:28:45;17.53;;;6.17;;
14191;SDS011;7177;48.572;7.838;2023-04-15T08:31:14;6.47;;;3.80;;
14191;SDS011;7177;48.572;7.838;2023-04-15T08:33:41;4.80;;;2.90;;
14191;SDS011;7177;48.572;7.838;2023-04-15T08:36:06;6.40;;;3.03;;
14191;SDS011;7177;48.572;7.838;2023-04-15T08:38:32;12.20;;;6.87;;
14191;SDS011;7177;48.572;7.838;2023-04-15T08:40:59;8.17;;;4.80;;
14191;SDS011;7177;48.572;7.838;2023-04-15T08:43:27;5.83;;;3.80;;
14191;SDS011;7177;48.572;7.838;2023-04-15T08:45:58;7.93;;;4.43;;
14191;SDS011;7177;48.572;7.838;2023-04-15T08:48:27;20.20;;;9.10;;
14191;SDS011;7177;48.572;7.838;2023-04-15T08:50:55;15.23;;;7.67;;
14191;SDS011;7177;48.572;7.838;2023-04-15T08:53:21;13.03;;;5.43;;
14191;SDS011;7177;48.572;7.838;2023-04-15T08:55:50;9.60;;;4.53;;
14191;SDS011;7177;48.572;7.838;2023-04-15T08:58:16;4.40;;;3.20;;
14191;SDS011;7177;48.572;7.838;2023-04-15T09:00:43;3.83;;;2.90;;
14191;SDS011;7177;48.572;7.838;2023-04-15T09:03:09;6.07;;;3.27;;
14191;SDS011;7177;48.572;7.838;2023-04-15T09:05:36;7.87;;;4.70;;
14191;SDS011;7177;48.572;7.838;2023-04-15T09:08:02;7.03;;;3.90;;
14191;SDS011;7177;48.572;7.838;2023-04-15T09:10:28;4.93;;;2.70;;
14191;SDS011;7177;48.572;7.838;2023-04-15T09:12:55;4.40;;;2.67;;
14191;SDS011;7177;48.572;7.838;2023-04-15T09:15:21;5.63;;;2.50;;
14191;SDS011;7177;48.572;7.838;2023-04-15T09:17:49;3.83;;;2.40;;
14191;SDS011;7177;48.572;7.838;2023-04-15T09:20:15;3.90;;;2.57;;
14191;SDS011;7177;48.572;7.838;2023-04-15T09:22:44;6.83;;;2.70;;
14191;SDS011;7177;48.572;7.838;2023-04-15T09:27:46;5.53;;;2.43;;
14191;SDS011;7177;48.572;7.838;2023-04-15T09:30:16;5.33;;;2.63;;
14191;SDS011;7177;48.572;7.838;2023-04-15T09:33:15;4.23;;;2.43;;
14191;SDS011;7177;48.572;7.838;2023-04-15T09:35:35;3.50;;;2.47;;
14191;SDS011;7177;48.572;7.838;2023-04-15T09:38:07;5.67;;;2.53;;
14191;SDS011;7177;48.572;7.838;2023-04-15T09:40:40;5.70;;;2.43;;
14191;SDS011;7177;48.572;7.838;2023-04-15T09:43:07;5.03;;;2.33;;
14191;SDS011;7177;48.572;7.838;2023-04-15T09:45:34;5.23;;;2.47;;
14191;SDS011;7177;48.572;7.838;2023-04-15T09:50:46;3.37;;;2.40;;
14191;SDS011;7177;48.572;7.838;2023-04-15T09:53:15;5.13;;;2.70;;
14191;SDS011;7177;48.572;7.838;2023-04-15T09:55:49;5.07;;;2.63;;
14191;SDS011;7177;48.572;7.838;2023-04-15T09:58:25;5.93;;;3.43;;
14191;SDS011;7177;48.572;7.838;2023-04-15T10:00:52;4.63;;;2.80;;
14191;SDS011;7177;48.572;7.838;2023-04-15T10:03:20;5.83;;;2.87;;
14191;SDS011;7177;48.572;7.838;2023-04-15T10:05:51;4.40;;;2.67;;
14191;SDS011;7177;48.572;7.838;2023-04-15T10:08:19;7.17;;;2.90;;
14191;SDS011;7177;48.572;7.838;2023-04-15T10:10:48;4.07;;;2.70;;
14191;SDS011;7177;48.572;7.838;2023-04-15T10:13:15;4.67;;;2.60;;
14191;SDS011;7177;48.572;7.838;2023-04-15T10:15:43;5.80;;;2.60;;
14191;SDS011;7177;48.572;7.838;2023-04-15T10:18:15;4.80;;;2.33;;
14191;SDS011;7177;48.572;7.838;2023-04-15T10:20:43;8.63;;;2.53;;
14191;SDS011;7177;48.572;7.838;2023-04-15T10:23:11;4.10;;;2.40;;
14191;SDS011;7177;48.572;7.838;2023-04-15T10:25:37;4.67;;;2.10;;
14191;SDS011;7177;48.572;7.838;2023-04-15T10:28:03;4.13;;;2.37;;
14191;SDS011;7177;48.572;7.838;2023-04-15T10:30:32;4.50;;;2.30;;
14191;SDS011;7177;48.572;7.838;2023-04-15T10:32:58;6.57;;;3.27;;
14191;SDS011;7177;48.572;7.838;2023-04-15T10:35:25;3.80;;;2.50;;
14191;SDS011;7177;48.572;7.838;2023-04-15T10:37:51;5.37;;;2.70;;
14191;SDS011;7177;48.572;7.838;2023-04-15T10:40:23;4.07;;;2.30;;
14191;SDS011;7177;48.572;7.838;2023-04-15T10:43:02;4.40;;;2.03;;
14191;SDS011;7177;48.572;7.838;2023-04-15T10:45:30;4.63;;;2.10;;
14191;SDS011;7177;48.572;7.838;2023-04-15T10:48:03;5.17;;;1.80;;
14191;SDS011;7177;48.572;7.838;2023-04-15T10:50:32;6.83;;;2.30;;
14191;SDS011;7177;48.572;7.838;2023-04-15T10:52:58;3.50;;;2.20;;
14191;SDS011;7177;48.572;7.838;2023-04-15T10:55:26;4.07;;;2.00;;
14191;SDS011;7177;48.572;7.838;2023-04-15T10:57:59;5.40;;;2.17;;
14191;SDS011;7177;48.572;7.838;2023-04-15T11:00:29;5.50;;;2.17;;
14191;SDS011;7177;48.572;7.838;2023-04-15T11:02:57;3.60;;;2.00;;
14191;SDS011;7177;48.572;7.838;2023-04-15T11:08:10;6.57;;;2.20;;
14191;SDS011;7177;48.572;7.838;2023-04-15T11:13:03;4.83;;;2.40;;
14191;SDS011;7177;48.572;7.838;2023-04-15T11:15:53;3.80;;;2.03;;
14191;SDS011;7177;48.572;7.838;2023-04-15T11:18:23;3.00;;;1.83;;
14191;SDS011;7177;48.572;7.838;2023-04-15T11:20:54;5.13;;;1.73;;
14191;SDS011;7177;48.572;7.838;2023-04-15T11:23:32;7.77;;;3.20;;
14191;SDS011;7177;48.572;7.838;2023-04-15T11:26:11;15.60;;;2.63;;
14191;SDS011;7177;48.572;7.838;2023-04-15T11:28:37;4.57;;;1.80;;
14191;SDS011;7177;48.572;7.838;2023-04-15T11:31:09;7.90;;;1.97;;
14191;SDS011;7177;48.572;7.838;2023-04-15T11:33:36;5.53;;;2.03;;
14191;SDS011;7177;48.572;7.838;2023-04-15T11:36:08;2.77;;;1.60;;
14191;SDS011;7177;48.572;7.838;2023-04-15T11:38:34;2.93;;;1.43;;
14191;SDS011;7177;48.572;7.838;2023-04-15T11:41:01;3.83;;;1.63;;
14191;SDS011;7177;48.572;7.838;2023-04-15T11:43:27;5.40;;;1.90;;
14191;SDS011;7177;48.572;7.838;2023-04-15T11:45:57;6.60;;;1.63;;
14191;SDS011;7177;48.572;7.838;2023-04-15T11:48:33;3.50;;;1.60;;
14191;SDS011;7177;48.572;7.838;2023-04-15T11:51:01;5.73;;;1.67;;
14191;SDS011;7177;48.572;7.838;2023-04-15T11:56:16;3.80;;;1.70;;
14191;SDS011;7177;48.572;7.838;2023-04-15T11:58:43;3.57;;;1.50;;
14191;SDS011;7177;48.572;7.838;2023-04-15T12:01:10;2.67;;;1.47;;
14191;SDS011;7177;48.572;7.838;2023-04-15T12:03:39;4.57;;;1.73;;
14191;SDS011;7177;48.572;7.838;2023-04-15T12:08:52;3.57;;;1.70;;
14191;SDS011;7177;48.572;7.838;2023-04-15T12:11:46;9.23;;;1.93;;
14191;SDS011;7177;48.572;7.838;2023-04-15T12:14:21;3.37;;;1.50;;
14191;SDS011;7177;48.572;7.838;2023-04-15T12:16:50;3.50;;;1.50;;
14191;SDS011;7177;48.572;7.838;2023-04-15T12:19:24;5.47;;;1.83;;
14191;SDS011;7177;48.572;7.838;2023-04-15T12:21:52;5.03;;;1.67;;
14191;SDS011;7177;48.572;7.838;2023-04-15T12:24:22;3.33;;;1.80;;
14191;SDS011;7177;48.572;7.838;2023-04-15T12:26:52;5.17;;;1.90;;
14191;SDS011;7177;48.572;7.838;2023-04-15T12:29:19;2.93;;;1.50;;
14191;SDS011;7177;48.572;7.838;2023-04-15T12:31:49;5.07;;;1.60;;
14191;SDS011;7177;48.572;7.838;2023-04-15T12:34:17;3.03;;;1.50;;
14191;SDS011;7177;48.572;7.838;2023-04-15T12:36:57;3.47;;;1.77;;
14191;SDS011;7177;48.572;7.838;2023-04-15T12:39:25;2.53;;;1.23;;
14191;SDS011;7177;48.572;7.838;2023-04-15T12:41:56;3.50;;;1.40;;
14191;SDS011;7177;48.572;7.838;2023-04-15T12:44:23;10.57;;;3.23;;
14191;SDS011;7177;48.572;7.838;2023-04-15T12:46:51;4.43;;;1.87;;
14191;SDS011;7177;48.572;7.838;2023-04-15T12:49:17;4.33;;;1.70;;
14191;SDS011;7177;48.572;7.838;2023-04-15T12:51:47;2.97;;;1.80;;
14191;SDS011;7177;48.572;7.838;2023-04-15T12:54:14;4.10;;;1.70;;
14191;SDS011;7177;48.572;7.838;2023-04-15T12:56:41;2.37;;;1.63;;
14191;SDS011;7177;48.572;7.838;2023-04-15T12:59:07;3.17;;;1.60;;
14191;SDS011;7177;48.572;7.838;2023-04-15T13:01:32;6.33;;;1.73;;
14191;SDS011;7177;48.572;7.838;2023-04-15T13:03:58;3.63;;;1.90;;
14191;SDS011;7177;48.572;7.838;2023-04-15T13:06:23;4.80;;;2.00;;
14191;SDS011;7177;48.572;7.838;2023-04-15T13:08:49;2.47;;;1.40;;
14191;SDS011;7177;48.572;7.838;2023-04-15T13:11:15;4.33;;;1.40;;
14191;SDS011;7177;48.572;7.838;2023-04-15T13:13:41;5.00;;;1.70;;
14191;SDS011;7177;48.572;7.838;2023-04-15T13:16:06;3.43;;;1.60;;
14191;SDS011;7177;48.572;7.838;2023-04-15T13:18:32;3.70;;;2.10;;
14191;SDS011;7177;48.572;7.838;2023-04-15T13:20:58;3.90;;;1.67;;
14191;SDS011;7177;48.572;7.838;2023-04-15T13:23:25;4.53;;;1.87;;
14191;SDS011;7177;48.572;7.838;2023-04-15T13:25:50;2.97;;;1.90;;
14191;SDS011;7177;48.572;7.838;2023-04-15T13:28:16;5.80;;;2.23;;
14191;SDS011;7177;48.572;7.838;2023-04-15T13:30:41;2.87;;;1.73;;
14191;SDS011;7177;48.572;7.838;2023-04-15T13:33:08;5.47;;;2.27;;
14191;SDS011;7177;48.572;7.838;2023-04-15T13:35:33;3.43;;;1.93;;
14191;SDS011;7177;48.572;7.838;2023-04-15T13:37:59;4.87;;;2.00;;
14191;SDS011;7177;48.572;7.838;2023-04-15T13:40:25;2.67;;;1.80;;
14191;SDS011;7177;48.572;7.838;2023-04-15T13:42:50;3.83;;;1.87;;
14191;SDS011;7177;48.572;7.838;2023-04-15T13:45:17;4.73;;;1.87;;
14191;SDS011;7177;48.572;7.838;2023-04-15T13:47:42;4.33;;;2.40;;
14191;SDS011;7177;48.572;7.838;2023-04-15T13:50:08;7.43;;;2.27;;
14191;SDS011;7177;48.572;7.838;2023-04-15T13:52:35;8.73;;;4.60;;
14191;SDS011;7177;48.572;7.838;2023-04-15T13:55:01;4.97;;;2.33;;
14191;SDS011;7177;48.572;7.838;2023-04-15T13:57:27;5.37;;;2.40;;
14191;SDS011;7177;48.572;7.838;2023-04-15T13:59:53;4.30;;;2.40;;
14191;SDS011;7177;48.572;7.838;2023-04-15T14:02:19;6.03;;;2.90;;
14191;SDS011;7177;48.572;7.838;2023-04-15T14:04:45;6.37;;;2.60;;
14191;SDS011;7177;48.572;7.838;2023-04-15T14:07:11;5.30;;;2.53;;
14191;SDS011;7177;48.572;7.838;2023-04-15T14:09:36;4.63;;;2.53;;
14191;SDS011;7177;48.572;7.838;2023-04-15T14:12:02;6.10;;;2.50;;
14191;SDS011;7177;48.572;7.838;2023-04-15T14:14:28;6.63;;;3.00;;
14191;SDS011;7177;48.572;7.838;2023-04-15T14:16:54;5.17;;;3.17;;
14191;SDS011;7177;48.572;7.838;2023-04-15T14:19:20;3.53;;;2.53;;
14191;SDS011;7177;48.572;7.838;2023-04-15T14:21:46;4.73;;;2.70;;
14191;SDS011;7177;48.572;7.838;2023-04-15T14:24:11;5.13;;;2.50;;
14191;SDS011;7177;48.572;7.838;2023-04-15T14:26:37;8.23;;;2.57;;
14191;SDS011;7177;48.572;7.838;2023-04-15T14:29:02;4.77;;;2.40;;
14191;SDS011;7177;48.572;7.838;2023-04-15T14:31:28;6.70;;;2.63;;
14191;SDS011;7177;48.572;7.838;2023-04-15T14:33:53;4.03;;;2.40;;
14191;SDS011;7177;48.572;7.838;2023-04-15T14:36:19;3.83;;;2.33;;
14191;SDS011;7177;48.572;7.838;2023-04-15T14:38:44;3.30;;;2.23;;
14191;SDS011;7177;48.572;7.838;2023-04-15T14:41:10;6.27;;;2.20;;
14191;SDS011;7177;48.572;7.838;2023-04-15T14:43:36;5.37;;;2.00;;
14191;SDS011;7177;48.572;7.838;2023-04-15T14:46:02;4.27;;;2.70;;
14191;SDS011;7177;48.572;7.838;2023-04-15T14:48:27;8.97;;;2.63;;
14191;SDS011;7177;48.572;7.838;2023-04-15T14:50:54;4.50;;;2.63;;
14191;SDS011;7177;48.572;7.838;2023-04-15T14:53:20;5.93;;;2.60;;
14191;SDS011;7177;48.572;7.838;2023-04-15T14:55:45;5.13;;;2.70;;
14191;SDS011;7177;48.572;7.838;2023-04-15T14:58:11;8.27;;;2.57;;
14191;SDS011;7177;48.572;7.838;2023-04-15T15:00:37;6.20;;;2.30;;
14191;SDS011;7177;48.572;7.838;2023-04-15T15:03:05;8.10;;;2.30;;
14191;SDS011;7177;48.572;7.838;2023-04-15T15:05:39;3.87;;;2.60;;
14191;SDS011;7177;48.572;7.838;2023-04-15T15:08:06;4.40;;;2.40;;
14191;SDS011;7177;48.572;7.838;2023-04-15T15:10:33;4.13;;;2.17;;
14191;SDS011;7177;48.572;7.838;2023-04-15T15:12:59;2.70;;;2.00;;
14191;SDS011;7177;48.572;7.838;2023-04-15T15:15:26;4.53;;;2.10;;